Time;durP1;ratioP1;P1;durP2;ratioP2;P2;SDS_P1;SDS_P2;PMS_P1;PMS_P2;Temp;Humidity;BMP_temperature;BMP_pressure;BME280_temperature;BME280_humidity;BME280_pressure;Samples;Min_cycle;Max_cycle;Signal;HPM_P1;HPM_P2
2022/01/05 00:01:00;;;;;;;0.85;0.80;;;3.60;98.00;;;;;;5037034;28;20040;-71
2022/01/05 00:03:26;;;;;;;1.17;0.90;;;3.60;98.00;;;;;;5033932;28;20029;-70
2022/01/05 00:05:51;;;;;;;2.38;0.80;;;3.60;98.00;;;;;;5035953;28;20033;-70
2022/01/05 00:08:20;;;;;;;1.00;0.88;;;3.60;98.00;;;;;;5036930;28;20037;-71
2022/01/05 00:10:45;;;;;;;1.45;0.88;;;3.60;98.00;;;;;;5034570;28;20029;-70
2022/01/05 00:13:11;;;;;;;1.15;0.85;;;3.60;98.00;;;;;;5029010;28;20105;-70
2022/01/05 00:15:37;;;;;;;2.25;1.10;;;3.70;98.00;;;;;;5034093;28;20083;-71
2022/01/05 00:18:02;;;;;;;1.92;1.00;;;3.70;98.00;;;;;;5016279;28;20455;-70
2022/01/05 00:20:30;;;;;;;1.85;0.90;;;3.80;98.00;;;;;;5027157;28;20351;-70
2022/01/05 00:22:56;;;;;;;1.92;1.02;;;3.80;98.00;;;;;;5021704;28;20021;-70
2022/01/05 00:25:21;;;;;;;1.00;0.80;;;3.90;98.00;;;;;;5033770;28;20031;-70
2022/01/05 00:27:47;;;;;;;0.88;0.80;;;4.10;98.00;;;;;;5035382;28;20040;-70
2022/01/05 00:30:12;;;;;;;1.05;0.80;;;4.10;98.00;;;;;;5035203;28;20022;-70
2022/01/05 00:32:38;;;;;;;1.10;0.90;;;4.20;98.00;;;;;;5033265;28;20034;-70
2022/01/05 00:35:07;;;;;;;1.75;1.10;;;4.10;98.00;;;;;;5032667;28;20036;-71
2022/01/05 00:37:33;;;;;;;1.10;0.80;;;4.10;98.00;;;;;;5025941;28;20029;-70
2022/01/05 00:39:59;;;;;;;1.13;0.80;;;4.10;98.00;;;;;;5018133;28;20025;-69
2022/01/05 00:42:25;;;;;;;1.00;0.82;;;4.10;98.00;;;;;;5035916;28;20471;-69
2022/01/05 00:44:50;;;;;;;1.00;0.80;;;4.10;98.00;;;;;;5034075;28;20378;-69
2022/01/05 00:47:20;;;;;;;1.45;0.90;;;4.10;98.00;;;;;;5030954;28;20026;-70
2022/01/05 00:49:46;;;;;;;1.67;0.80;;;4.20;98.00;;;;;;5026502;28;20013;-70
2022/01/05 00:52:12;;;;;;;1.88;1.00;;;4.20;98.00;;;;;;5021573;28;20040;-70
2022/01/05 00:54:41;;;;;;;1.08;0.80;;;4.30;98.00;;;;;;5029819;28;20423;-69
2022/01/05 00:57:07;;;;;;;2.33;0.90;;;4.30;98.00;;;;;;5027849;28;20044;-70
2022/01/05 00:59:35;;;;;;;1.27;0.80;;;4.40;98.00;;;;;;5034843;28;20021;-69
2022/01/05 01:02:00;;;;;;;1.83;0.90;;;4.40;98.00;;;;;;5021009;28;20040;-68
2022/01/05 01:04:26;;;;;;;0.70;0.70;;;4.50;98.00;;;;;;5016707;28;20411;-69
2022/01/05 01:06:51;;;;;;;1.10;0.90;;;4.50;98.00;;;;;;5034184;28;20457;-70
2022/01/05 01:09:21;;;;;;;1.63;1.00;;;4.50;98.00;;;;;;5015796;28;20120;-70
2022/01/05 01:11:47;;;;;;;1.88;0.80;;;4.50;98.00;;;;;;5026855;28;20052;-69
2022/01/05 01:14:12;;;;;;;2.55;1.10;;;4.50;98.00;;;;;;5035124;28;20022;-69
2022/01/05 01:16:38;;;;;;;0.90;0.80;;;4.50;98.00;;;;;;5031075;28;20026;-70
2022/01/05 01:19:04;;;;;;;1.75;0.90;;;4.50;98.00;;;;;;5022429;28;20414;-69
2022/01/05 01:21:29;;;;;;;0.88;0.77;;;4.50;98.00;;;;;;5032281;28;20046;-70
2022/01/05 01:23:55;;;;;;;2.45;1.00;;;4.50;98.00;;;;;;5027183;28;20029;-69
2022/01/05 01:26:26;;;;;;;0.82;0.70;;;4.60;98.00;;;;;;5027013;28;20018;-68
2022/01/05 01:28:56;;;;;;;1.83;0.90;;;4.70;98.00;;;;;;5033495;28;20026;-70
2022/01/05 01:31:22;;;;;;;3.53;0.80;;;4.70;98.00;;;;;;5030761;28;20022;-69
2022/01/05 01:33:48;;;;;;;1.67;1.00;;;4.70;98.00;;;;;;5017115;28;20014;-68
2022/01/05 01:36:14;;;;;;;1.27;0.85;;;4.80;98.00;;;;;;5025126;28;20080;-69
2022/01/05 01:38:41;;;;;;;1.30;0.90;;;4.80;98.00;;;;;;5032691;28;20334;-70
2022/01/05 01:41:08;;;;;;;2.22;0.90;;;4.80;98.00;;;;;;5033403;28;20034;-69
2022/01/05 01:43:33;;;;;;;1.67;0.98;;;4.70;98.00;;;;;;5031519;28;20031;-69
2022/01/05 01:46:00;;;;;;;1.67;1.00;;;4.70;98.00;;;;;;5030935;28;20042;-69
2022/01/05 01:48:31;;;;;;;5.60;1.10;;;4.70;98.00;;;;;;5014311;28;20378;-70
2022/01/05 01:50:57;;;;;;;3.60;1.00;;;4.80;98.00;;;;;;5016657;28;20105;-70
2022/01/05 01:53:23;;;;;;;1.63;0.90;;;4.70;98.00;;;;;;5023102;28;20018;-69
2022/01/05 01:55:50;;;;;;;1.05;0.80;;;4.80;98.00;;;;;;5026123;28;20041;-70
2022/01/05 01:58:19;;;;;;;4.07;1.35;;;4.90;98.00;;;;;;5028100;28;20505;-70
2022/01/05 02:00:44;;;;;;;1.17;0.90;;;4.80;98.00;;;;;;5034449;28;20022;-69
2022/01/05 02:03:12;;;;;;;1.85;1.00;;;4.70;98.00;;;;;;5025927;28;20080;-69
2022/01/05 02:05:38;;;;;;;1.67;0.90;;;4.70;98.00;;;;;;5030585;28;20036;-68
2022/01/05 02:08:04;;;;;;;0.85;0.73;;;4.80;98.00;;;;;;5034140;28;20029;-69
2022/01/05 02:10:33;;;;;;;1.90;0.80;;;4.80;98.00;;;;;;5032898;28;20082;-69
2022/01/05 02:13:02;;;;;;;1.35;0.80;;;4.80;98.00;;;;;;5030393;28;20087;-69
2022/01/05 02:15:31;;;;;;;1.25;0.82;;;4.70;98.00;;;;;;5026264;28;20034;-70
2022/01/05 02:18:10;;;;;;;1.17;0.80;;;4.70;98.00;;;;;;5021586;28;20064;-69
2022/01/05 02:20:36;;;;;;;1.15;0.80;;;4.80;98.00;;;;;;5032618;28;20338;-70
2022/01/05 02:23:03;;;;;;;0.98;0.80;;;4.70;98.00;;;;;;5027160;28;20108;-71
2022/01/05 02:25:29;;;;;;;0.80;0.80;;;4.80;98.00;;;;;;5031427;28;20425;-70
2022/01/05 02:27:56;;;;;;;1.02;0.90;;;4.80;98.00;;;;;;5011526;28;20029;-70
2022/01/05 02:30:29;;;;;;;1.00;0.88;;;4.80;98.00;;;;;;5029140;28;20032;-70
2022/01/05 02:32:55;;;;;;;0.90;0.75;;;4.80;98.00;;;;;;5030199;28;20054;-69
2022/01/05 02:35:22;;;;;;;1.05;0.70;;;4.80;98.00;;;;;;5032726;28;20064;-68
2022/01/05 02:37:50;;;;;;;1.00;0.80;;;4.80;98.00;;;;;;5023891;28;20220;-70
2022/01/05 02:40:18;;;;;;;1.70;0.80;;;4.80;98.00;;;;;;5028337;28;20148;-68
2022/01/05 02:42:45;;;;;;;1.10;0.82;;;4.70;98.00;;;;;;5030395;28;20044;-69
2022/01/05 02:45:12;;;;;;;0.90;0.80;;;4.70;98.00;;;;;;5033843;28;20443;-69
2022/01/05 02:47:39;;;;;;;1.20;0.70;;;4.70;98.00;;;;;;5035640;28;20040;-70
2022/01/05 02:50:10;;;;;;;1.33;0.88;;;4.60;98.00;;;;;;5033623;28;20472;-71
2022/01/05 02:52:36;;;;;;;1.27;0.88;;;4.60;98.00;;;;;;5017318;28;20152;-70
2022/01/05 02:55:03;;;;;;;1.35;0.80;;;4.50;98.00;;;;;;5037667;28;20048;-69
2022/01/05 02:57:29;;;;;;;1.00;0.82;;;4.50;98.00;;;;;;5033794;28;20028;-69
2022/01/05 02:59:59;;;;;;;1.10;0.80;;;4.40;98.00;;;;;;5025407;28;20037;-68
2022/01/05 03:02:24;;;;;;;0.70;0.70;;;4.50;98.00;;;;;;5018758;28;20421;-70
2022/01/05 03:04:50;;;;;;;0.75;0.70;;;4.50;98.00;;;;;;5018985;28;20092;-70
2022/01/05 03:07:16;;;;;;;0.70;0.70;;;4.50;98.00;;;;;;5030014;28;20056;-70
2022/01/05 03:09:42;;;;;;;1.25;0.80;;;4.40;98.00;;;;;;5021076;28;20025;-70
2022/01/05 03:12:09;;;;;;;0.93;0.80;;;4.20;98.00;;;;;;5031633;28;20339;-70
2022/01/05 03:14:35;;;;;;;1.23;0.80;;;4.10;98.00;;;;;;5034298;28;20357;-71
2022/01/05 03:17:00;;;;;;;0.93;0.80;;;4.10;98.00;;;;;;5035650;28;20025;-70
2022/01/05 03:19:26;;;;;;;0.70;0.70;;;4.00;98.00;;;;;;5027965;28;20057;-70
2022/01/05 03:21:52;;;;;;;1.85;1.30;;;4.00;98.00;;;;;;5034254;28;20041;-69
2022/01/05 03:24:18;;;;;;;3.05;2.22;;;3.90;98.00;;;;;;5031584;28;20461;-70
2022/01/05 03:26:43;;;;;;;0.80;0.80;;;3.90;98.00;;;;;;5031828;28;20453;-70
2022/01/05 03:29:09;;;;;;;2.17;0.80;;;3.80;98.00;;;;;;5036580;28;20029;-71
2022/01/05 03:31:35;;;;;;;1.52;0.90;;;3.80;98.00;;;;;;5032735;28;20358;-70
2022/01/05 03:34:00;;;;;;;0.90;0.82;;;3.80;98.00;;;;;;5024022;28;20421;-70
2022/01/05 03:36:26;;;;;;;0.80;0.80;;;3.80;98.00;;;;;;5019467;28;20037;-71
2022/01/05 03:38:52;;;;;;;1.13;0.80;;;3.70;98.00;;;;;;5031753;28;20033;-70
2022/01/05 03:41:18;;;;;;;1.10;0.80;;;3.70;98.00;;;;;;5035022;28;20115;-71
2022/01/05 03:43:43;;;;;;;0.90;0.80;;;3.70;98.00;;;;;;5035864;28;20410;-70
2022/01/05 03:46:09;;;;;;;3.35;0.85;;;3.60;98.00;;;;;;5028557;28;20037;-70
2022/01/05 03:48:34;;;;;;;0.85;0.70;;;3.50;98.00;;;;;;5028011;28;20021;-71
2022/01/05 03:51:00;;;;;;;1.02;0.80;;;3.50;98.00;;;;;;5030397;28;20034;-70
2022/01/05 03:53:26;;;;;;;1.27;0.90;;;3.50;98.00;;;;;;5026816;28;20105;-71
2022/01/05 03:55:51;;;;;;;1.08;0.88;;;3.50;98.00;;;;;;5018474;28;20053;-71
2022/01/05 03:58:17;;;;;;;0.88;0.80;;;3.40;98.00;;;;;;5036335;28;20132;-70
2022/01/05 04:00:50;;;;;;;0.80;0.75;;;3.30;98.00;;;;;;5026833;28;20033;-70
2022/01/05 04:03:17;;;;;;;0.80;0.80;;;3.30;98.00;;;;;;5020315;28;20029;-70
2022/01/05 04:05:43;;;;;;;0.80;0.70;;;3.30;98.00;;;;;;5028412;28;20060;-71
2022/01/05 04:08:09;;;;;;;0.80;0.80;;;3.30;98.00;;;;;;5035482;28;20365;-70
2022/01/05 04:10:34;;;;;;;0.80;0.80;;;3.30;98.00;;;;;;5028021;28;20032;-70
2022/01/05 04:13:00;;;;;;;0.70;0.70;;;3.30;98.00;;;;;;5032144;28;20036;-70
2022/01/05 04:15:26;;;;;;;0.70;0.70;;;3.30;98.00;;;;;;5027032;28;20030;-71
2022/01/05 04:17:51;;;;;;;0.70;0.70;;;3.30;98.00;;;;;;5026048;28;20036;-71
2022/01/05 04:20:18;;;;;;;0.80;0.80;;;3.30;98.00;;;;;;5024465;28;20343;-71
2022/01/05 04:22:44;;;;;;;0.70;0.70;;;3.30;98.00;;;;;;5026165;28;20083;-71
2022/01/05 04:25:10;;;;;;;0.70;0.70;;;3.30;98.00;;;;;;5026261;28;20077;-71
2022/01/05 04:27:36;;;;;;;0.80;0.80;;;3.30;98.00;;;;;;5033241;28;20295;-71
2022/01/05 04:30:04;;;;;;;0.70;0.70;;;3.40;98.00;;;;;;5030679;28;20029;-71
2022/01/05 04:32:29;;;;;;;0.70;0.70;;;3.40;98.00;;;;;;5033965;28;20034;-71
2022/01/05 04:34:55;;;;;;;0.95;0.80;;;3.50;98.00;;;;;;5034402;28;20033;-71
2022/01/05 04:37:22;;;;;;;0.80;0.80;;;3.50;98.00;;;;;;5031764;28;20037;-71
2022/01/05 04:39:47;;;;;;;0.80;0.80;;;3.40;98.00;;;;;;5033726;28;20029;-71
2022/01/05 04:42:13;;;;;;;0.82;0.80;;;3.40;98.00;;;;;;5033635;28;20033;-71
2022/01/05 04:44:39;;;;;;;0.80;0.77;;;3.30;98.00;;;;;;5029003;28;20335;-71
2022/01/05 04:47:05;;;;;;;0.75;0.75;;;3.20;98.00;;;;;;5032258;28;20013;-71
2022/01/05 04:49:30;;;;;;;0.90;0.90;;;3.30;98.00;;;;;;5033264;28;20021;-71
2022/01/05 04:51:56;;;;;;;2.50;1.60;;;3.30;98.00;;;;;;5026730;28;20029;-71
2022/01/05 04:54:22;;;;;;;3.67;1.77;;;3.20;98.00;;;;;;5032974;28;20029;-71
2022/01/05 04:56:47;;;;;;;1.80;0.90;;;3.20;98.00;;;;;;5034229;28;20026;-70
2022/01/05 04:59:13;;;;;;;1.50;0.90;;;3.30;98.00;;;;;;5020597;28;20105;-70
2022/01/05 05:01:39;;;;;;;1.88;1.20;;;3.30;98.00;;;;;;5032170;28;20437;-71
2022/01/05 05:04:05;;;;;;;1.90;1.00;;;3.30;98.00;;;;;;5026002;28;20105;-70
2022/01/05 05:06:30;;;;;;;1.63;0.90;;;3.30;98.00;;;;;;5032454;28;20025;-70
2022/01/05 05:08:56;;;;;;;1.02;0.90;;;3.30;98.00;;;;;;5022288;28;20033;-69
2022/01/05 05:11:22;;;;;;;1.35;0.93;;;3.30;98.00;;;;;;5032624;28;20029;-70
2022/01/05 05:13:48;;;;;;;1.13;0.90;;;3.30;98.00;;;;;;5030336;28;20026;-70
2022/01/05 05:16:14;;;;;;;1.52;1.02;;;3.30;98.00;;;;;;5034492;28;20034;-71
2022/01/05 05:18:39;;;;;;;1.13;0.90;;;3.30;98.00;;;;;;5033461;28;20361;-71
2022/01/05 05:21:05;;;;;;;1.08;0.90;;;3.30;98.00;;;;;;5025323;28;20112;-71
2022/01/05 05:23:31;;;;;;;1.20;0.95;;;3.30;98.00;;;;;;5033733;28;20033;-71
2022/01/05 05:25:57;;;;;;;1.55;1.00;;;3.30;98.00;;;;;;5027613;28;20425;-71
2022/01/05 05:28:23;;;;;;;1.73;0.90;;;3.30;98.00;;;;;;5034725;28;20025;-71
2022/01/05 05:30:49;;;;;;;0.90;0.80;;;3.20;98.00;;;;;;5032203;28;20325;-70
2022/01/05 05:33:14;;;;;;;1.20;0.98;;;3.20;98.00;;;;;;5032211;28;20026;-71
2022/01/05 05:35:41;;;;;;;1.92;1.10;;;3.20;98.00;;;;;;5016028;28;20372;-70
2022/01/05 05:38:08;;;;;;;3.67;1.77;;;3.10;98.00;;;;;;5030187;28;20060;-71
2022/01/05 05:40:36;;;;;;;2.55;1.10;;;3.00;98.00;;;;;;5034912;28;20025;-70
2022/01/05 05:43:02;;;;;;;2.47;1.33;;;2.90;97.80;;;;;;5020104;28;20030;-70
2022/01/05 05:45:27;;;;;;;2.72;1.33;;;2.80;97.40;;;;;;5026269;28;20096;-70
2022/01/05 05:47:53;;;;;;;2.30;1.20;;;2.70;97.10;;;;;;5026417;28;20052;-70
2022/01/05 05:50:22;;;;;;;1.58;1.00;;;2.60;96.30;;;;;;5024738;28;20029;-70
2022/01/05 05:52:47;;;;;;;2.75;1.63;;;2.50;96.00;;;;;;5030476;28;20030;-70
2022/01/05 05:55:13;;;;;;;2.80;1.42;;;2.40;95.90;;;;;;5029679;28;20037;-70
2022/01/05 05:57:39;;;;;;;2.28;1.20;;;2.30;95.40;;;;;;5016013;28;20025;-69
2022/01/05 06:00:06;;;;;;;2.75;1.50;;;2.20;94.90;;;;;;5033757;28;20029;-71
2022/01/05 06:02:33;;;;;;;2.33;1.40;;;2.10;94.30;;;;;;5025321;28;20021;-70
2022/01/05 06:04:58;;;;;;;3.13;1.70;;;2.10;94.10;;;;;;5029144;28;20072;-70
2022/01/05 06:07:24;;;;;;;2.58;1.42;;;2.10;93.60;;;;;;5023607;28;20049;-69
2022/01/05 06:09:49;;;;;;;3.33;1.67;;;2.10;93.20;;;;;;5016416;28;20014;-70
2022/01/05 06:12:15;;;;;;;3.35;1.85;;;2.10;92.90;;;;;;5017927;28;20022;-69
2022/01/05 06:14:42;;;;;;;5.18;2.13;;;2.00;92.90;;;;;;5021389;28;20057;-69
2022/01/05 06:17:07;;;;;;;3.67;2.13;;;2.00;92.40;;;;;;5023487;28;20030;-70
2022/01/05 06:19:33;;;;;;;3.38;1.95;;;2.00;92.10;;;;;;5016477;28;20030;-69
2022/01/05 06:21:59;;;;;;;3.90;2.30;;;2.00;91.70;;;;;;5025938;28;20345;-70
2022/01/05 06:24:25;;;;;;;3.63;2.33;;;2.00;91.80;;;;;;5015804;28;20318;-70
2022/01/05 06:26:54;;;;;;;3.80;2.22;;;2.00;92.80;;;;;;5033740;28;20067;-70
2022/01/05 06:29:20;;;;;;;6.28;3.25;;;2.00;94.20;;;;;;5030551;28;20025;-70
2022/01/05 06:31:46;;;;;;;5.03;2.53;;;2.00;94.30;;;;;;5032285;28;20026;-69
2022/01/05 06:34:11;;;;;;;3.65;2.20;;;1.90;97.30;;;;;;5024360;28;20056;-69
2022/01/05 06:36:37;;;;;;;3.63;2.10;;;1.80;98.00;;;;;;5024641;28;20118;-70
2022/01/05 06:39:04;;;;;;;4.43;2.60;;;1.80;98.00;;;;;;5023788;28;20333;-70
2022/01/05 06:41:30;;;;;;;4.07;2.58;;;1.70;98.00;;;;;;5031931;28;20299;-69
2022/01/05 06:43:56;;;;;;;3.95;2.40;;;1.70;98.00;;;;;;5021423;28;20040;-70
2022/01/05 06:46:21;;;;;;;4.13;2.78;;;1.70;98.00;;;;;;5020080;28;20025;-70
2022/01/05 06:48:47;;;;;;;5.07;2.83;;;1.60;98.00;;;;;;5026162;28;20491;-71
2022/01/05 06:51:13;;;;;;;3.72;2.50;;;1.60;98.00;;;;;;5031492;28;20341;-70
2022/01/05 06:53:38;;;;;;;5.07;2.30;;;1.60;98.00;;;;;;5028162;28;20044;-70
2022/01/05 06:56:04;;;;;;;5.05;3.40;;;1.50;98.00;;;;;;5032276;28;20321;-70
2022/01/05 06:58:30;;;;;;;6.35;3.25;;;1.50;98.00;;;;;;5033960;28;20030;-70
2022/01/05 07:00:56;;;;;;;5.32;3.30;;;1.50;98.00;;;;;;5032297;28;20038;-70
2022/01/05 07:03:22;;;;;;;7.38;4.10;;;1.50;98.00;;;;;;5013851;28;20032;-69
2022/01/05 07:05:48;;;;;;;6.28;3.63;;;1.40;97.90;;;;;;5031477;28;20028;-70
2022/01/05 07:08:14;;;;;;;4.85;3.25;;;1.40;97.80;;;;;;5032522;28;20021;-70
2022/01/05 07:10:40;;;;;;;8.23;4.85;;;1.40;98.00;;;;;;5029066;28;20017;-70
2022/01/05 07:13:07;;;;;;;5.57;3.70;;;1.30;98.00;;;;;;5029868;28;20408;-69
2022/01/05 07:15:33;;;;;;;5.47;3.45;;;1.30;98.00;;;;;;5032429;28;20036;-69
2022/01/05 07:17:59;;;;;;;5.13;3.40;;;1.30;98.00;;;;;;5030879;28;20029;-70
2022/01/05 07:20:24;;;;;;;5.10;3.55;;;1.20;98.00;;;;;;5026565;28;20104;-70
2022/01/05 07:22:50;;;;;;;7.72;3.92;;;1.20;98.00;;;;;;5036724;28;20291;-70
2022/01/05 07:25:16;;;;;;;7.28;4.78;;;1.20;98.00;;;;;;5035930;28;20034;-70
2022/01/05 07:27:42;;;;;;;7.55;5.30;;;1.20;97.60;;;;;;5032435;28;20018;-70
2022/01/05 07:30:09;;;;;;;6.60;3.80;;;1.20;98.00;;;;;;5032440;28;20120;-70
2022/01/05 07:32:36;;;;;;;7.05;4.13;;;1.10;97.80;;;;;;5027831;28;20365;-70
2022/01/05 07:35:02;;;;;;;8.82;5.55;;;1.20;98.00;;;;;;5014238;28;20092;-69
2022/01/05 07:37:31;;;;;;;5.88;3.50;;;1.10;97.60;;;;;;5025261;28;20034;-70
2022/01/05 07:39:56;;;;;;;6.70;3.70;;;1.10;98.00;;;;;;5023284;28;20026;-70
2022/01/05 07:42:22;;;;;;;14.75;7.20;;;1.10;98.00;;;;;;5031089;28;20478;-69
2022/01/05 07:44:48;;;;;;;9.65;5.80;;;1.10;98.00;;;;;;5031537;28;20036;-70
2022/01/05 07:47:13;;;;;;;5.05;2.97;;;1.10;98.00;;;;;;5015835;28;20025;-69
2022/01/05 07:49:39;;;;;;;6.25;3.45;;;1.10;98.00;;;;;;5006639;28;20129;-70
2022/01/05 07:52:06;;;;;;;5.95;3.63;;;1.00;98.00;;;;;;5026358;28;20116;-71
2022/01/05 07:54:32;;;;;;;11.57;7.63;;;1.00;97.80;;;;;;5025856;28;20084;-70
2022/01/05 07:56:58;;;;;;;5.97;3.72;;;0.80;96.90;;;;;;5014056;28;20183;-70
2022/01/05 07:59:24;;;;;;;7.60;3.97;;;0.70;96.70;;;;;;5028664;28;20022;-70
2022/01/05 08:01:50;;;;;;;8.13;3.63;;;0.60;95.80;;;;;;5022316;28;20032;-70
2022/01/05 08:04:16;;;;;;;9.57;4.15;;;0.40;96.00;;;;;;5028756;28;20101;-70
2022/01/05 08:06:42;;;;;;;15.00;6.50;;;0.30;95.80;;;;;;5016870;28;20026;-70
2022/01/05 08:09:08;;;;;;;16.42;7.70;;;0.30;95.10;;;;;;5037874;28;20025;-69
2022/01/05 08:11:34;;;;;;;15.07;6.80;;;0.30;94.10;;;;;;5034926;28;20402;-70
2022/01/05 08:14:00;;;;;;;15.30;8.82;;;0.20;94.00;;;;;;5034218;28;20053;-70
2022/01/05 08:16:26;;;;;;;15.05;8.52;;;0.20;92.70;;;;;;5035524;28;20053;-70
2022/01/05 08:18:51;;;;;;;27.05;13.70;;;0.20;92.40;;;;;;5036088;28;20029;-71
2022/01/05 08:21:17;;;;;;;13.95;7.65;;;0.20;91.80;;;;;;5016645;28;20493;-71
2022/01/05 08:23:44;;;;;;;13.52;7.40;;;0.20;91.30;;;;;;5036891;28;20318;-72
2022/01/05 08:26:09;;;;;;;20.20;12.93;;;0.20;91.40;;;;;;5036279;28;20035;-71
2022/01/05 08:28:35;;;;;;;21.17;14.32;;;0.20;90.80;;;;;;5036878;28;20097;-72
2022/01/05 08:31:02;;;;;;;17.98;12.63;;;0.20;91.00;;;;;;5036634;28;20025;-71
2022/01/05 08:33:28;;;;;;;14.38;10.05;;;0.20;90.90;;;;;;5034347;28;20034;-70
2022/01/05 08:35:54;;;;;;;8.25;5.57;;;0.20;91.00;;;;;;5032907;28;20125;-71
2022/01/05 08:38:19;;;;;;;8.25;4.60;;;0.20;92.60;;;;;;5036627;28;20127;-70
2022/01/05 08:40:45;;;;;;;9.45;4.95;;;0.20;97.30;;;;;;5036128;28;20082;-70
2022/01/05 08:43:12;;;;;;;10.43;4.50;;;0.20;98.00;;;;;;5036333;28;20041;-70
2022/01/05 08:45:39;;;;;;;9.02;4.38;;;0.20;98.00;;;;;;5035201;28;20385;-70
2022/01/05 08:48:05;;;;;;;10.15;4.70;;;0.30;98.00;;;;;;5032557;28;20026;-70
2022/01/05 08:50:32;;;;;;;9.65;5.30;;;0.40;98.00;;;;;;5035798;28;20146;-70
2022/01/05 08:52:58;;;;;;;13.95;6.13;;;0.40;98.00;;;;;;5036073;28;20331;-70
2022/01/05 08:55:33;;;;;;;17.98;7.25;;;0.40;98.00;;;;;;5035304;28;20062;-70
2022/01/05 08:57:59;;;;;;;11.48;5.32;;;0.40;98.00;;;;;;5036541;28;20025;-70
2022/01/05 09:00:26;;;;;;;5.88;3.60;;;0.40;98.00;;;;;;5036267;28;20059;-71
2022/01/05 09:02:52;;;;;;;8.10;4.43;;;0.40;98.00;;;;;;5035213;28;20029;-71
2022/01/05 09:05:18;;;;;;;9.20;4.70;;;0.40;98.00;;;;;;5036698;28;20322;-71
2022/01/05 09:07:44;;;;;;;9.52;4.25;;;0.80;98.00;;;;;;5035239;28;20113;-71
2022/01/05 09:10:10;;;;;;;15.45;5.68;;;1.50;98.00;;;;;;5031850;28;20048;-70
2022/01/05 09:12:36;;;;;;;13.27;5.00;;;1.10;96.60;;;;;;5035614;28;20111;-69
2022/01/05 09:15:04;;;;;;;10.27;4.00;;;0.60;96.20;;;;;;5029158;28;20056;-68
2022/01/05 09:17:30;;;;;;;12.43;5.55;;;0.20;97.40;;;;;;5022760;28;20021;-68
2022/01/05 09:19:56;;;;;;;7.50;3.72;;;0.00;98.00;;;;;;5023593;28;20504;-69
2022/01/05 09:22:22;;;;;;;7.82;3.10;;;-0.10;98.00;;;;;;5023403;28;20299;-69
2022/01/05 09:24:49;;;;;;;10.75;4.50;;;-0.10;97.90;;;;;;5025282;28;20042;-69
2022/01/05 09:27:16;;;;;;;8.48;3.42;;;-0.10;98.00;;;;;;5018159;28;20021;-70
2022/01/05 09:29:42;;;;;;;11.30;3.83;;;-0.10;98.00;;;;;;5034967;28;20317;-70
2022/01/05 09:32:09;;;;;;;9.07;3.47;;;0.00;98.00;;;;;;5034695;28;20041;-70
2022/01/05 09:34:40;;;;;;;9.27;3.90;;;0.10;98.00;;;;;;5017824;28;20026;-70
2022/01/05 09:37:25;;;;;;;10.00;4.38;;;0.10;98.00;;;;;;5036422;28;20044;-70
2022/01/05 09:42:36;;;;;;;;;;;0.20;98.00;;;;;;5036117;28;20101;-70
2022/01/05 09:45:19;;;;;;;9.20;3.20;;;0.40;98.00;;;;;;5018320;28;19921;-70
2022/01/05 09:48:10;;;;;;;9.07;3.92;;;0.60;98.00;;;;;;5033364;28;20032;-71
2022/01/05 09:50:44;;;;;;;9.27;2.95;;;0.70;97.70;;;;;;5035969;28;20026;-70
2022/01/05 09:53:11;;;;;;;8.35;3.05;;;0.60;97.40;;;;;;5035981;28;20026;-70
2022/01/05 09:55:38;;;;;;;10.25;3.63;;;0.50;98.00;;;;;;5036083;28;20029;-70
2022/01/05 09:58:03;;;;;;;8.70;3.47;;;0.50;98.00;;;;;;5018506;28;20112;-70
2022/01/05 10:00:34;;;;;;;7.45;2.85;;;0.60;98.00;;;;;;5035991;28;20171;-70
2022/01/05 10:03:00;;;;;;;10.57;3.00;;;0.60;96.10;;;;;;5030289;28;20052;-70
2022/01/05 10:05:28;;;;;;;9.95;3.35;;;1.10;95.30;;;;;;5035695;28;20037;-70
2022/01/05 10:07:54;;;;;;;9.85;3.38;;;1.70;93.40;;;;;;5035600;28;20025;-70
2022/01/05 10:10:20;;;;;;;10.23;3.35;;;1.90;91.60;;;;;;5036261;28;20017;-70
2022/01/05 10:12:45;;;;;;;8.27;2.35;;;2.30;88.50;;;;;;5017374;28;20407;-70
2022/01/05 10:15:13;;;;;;;7.68;2.30;;;2.70;87.30;;;;;;5035285;28;20036;-70
2022/01/05 10:17:40;;;;;;;8.35;3.28;;;2.40;85.40;;;;;;5034232;28;20056;-70
2022/01/05 10:20:09;;;;;;;6.68;2.55;;;2.40;86.30;;;;;;5035255;28;20391;-70
2022/01/05 10:22:36;;;;;;;9.13;3.20;;;1.90;86.80;;;;;;5036090;28;20369;-70
2022/01/05 10:25:24;;;;;;;9.88;3.58;;;1.60;88.50;;;;;;5035442;28;20322;-70
2022/01/05 10:28:01;;;;;;;9.07;3.28;;;1.20;89.50;;;;;;5035094;28;20037;-70
2022/01/05 10:30:47;;;;;;;13.63;4.20;;;1.00;90.90;;;;;;5035560;28;20057;-69
2022/01/05 10:33:13;;;;;;;10.32;3.47;;;0.80;89.50;;;;;;5034170;28;20084;-70
2022/01/05 10:35:55;;;;;;;10.20;3.25;;;0.70;90.00;;;;;;5035425;28;20049;-70
2022/01/05 10:38:28;;;;;;;7.53;3.13;;;1.10;89.70;;;;;;5035373;28;20040;-70
2022/01/05 10:40:54;;;;;;;13.38;5.35;;;1.80;87.60;;;;;;5035521;28;20342;-70
2022/01/05 10:43:19;;;;;;;8.88;3.05;;;1.90;85.90;;;;;;5034991;28;20022;-70
2022/01/05 10:45:48;;;;;;;12.10;3.33;;;2.40;86.20;;;;;;5035290;28;20097;-70
2022/01/05 10:48:24;;;;;;;5.97;2.75;;;2.60;85.40;;;;;;5033986;28;20017;-69
2022/01/05 10:51:03;;;;;;;13.00;3.28;;;2.60;84.00;;;;;;5035048;28;20092;-70
2022/01/05 10:53:29;;;;;;;10.45;3.28;;;1.80;86.60;;;;;;5035332;28;20414;-70
2022/01/05 10:55:54;;;;;;;12.45;3.70;;;1.40;89.30;;;;;;5039167;28;20044;-69
2022/01/05 10:58:20;;;;;;;14.10;3.85;;;1.40;87.60;;;;;;5039399;28;20026;-69
2022/01/05 11:00:54;;;;;;;9.82;3.30;;;1.00;89.00;;;;;;5039635;28;20036;-70
2022/01/05 11:03:35;;;;;;;15.73;4.75;;;0.90;89.00;;;;;;5037604;28;20034;-69
2022/01/05 11:06:17;;;;;;;14.82;5.00;;;0.70;90.50;;;;;;5021028;28;20117;-68
2022/01/05 11:09:18;;;;;;;14.88;4.90;;;0.60;91.50;;;;;;5019558;28;20369;-69
2022/01/05 11:11:46;;;;;;;12.73;4.57;;;0.70;90.80;;;;;;5000670;28;20418;-69
2022/01/05 11:14:14;;;;;;;12.80;6.47;;;0.50;90.30;;;;;;5039339;28;20021;-71
2022/01/05 11:16:45;;;;;;;9.40;3.55;;;0.50;90.70;;;;;;5038285;28;20033;-71
2022/01/05 11:19:13;;;;;;;12.32;4.05;;;0.60;90.20;;;;;;5037758;28;20531;-70
2022/01/05 11:21:53;;;;;;;11.88;3.13;;;0.90;90.80;;;;;;5038420;28;20099;-71
2022/01/05 11:24:23;;;;;;;12.98;4.15;;;1.50;87.20;;;;;;5038700;28;20538;-71
2022/01/05 11:26:49;;;;;;;9.80;4.35;;;1.20;87.20;;;;;;5037319;28;20025;-70
2022/01/05 11:29:15;;;;;;;11.15;3.35;;;1.50;89.30;;;;;;5038648;28;20028;-71
2022/01/05 11:31:41;;;;;;;8.82;2.85;;;2.40;85.90;;;;;;5038769;28;20022;-70
2022/01/05 11:34:07;;;;;;;13.75;3.63;;;2.40;83.60;;;;;;5037240;28;20437;-70
2022/01/05 11:36:33;;;;;;;7.78;2.92;;;2.10;85.10;;;;;;5038703;28;20111;-70
2022/01/05 11:38:59;;;;;;;12.23;3.45;;;2.10;85.20;;;;;;5038527;28;20398;-70
2022/01/05 11:41:25;;;;;;;10.13;2.83;;;2.10;85.50;;;;;;5038988;28;20021;-70
2022/01/05 11:43:51;;;;;;;12.88;4.97;;;2.00;84.90;;;;;;5038309;28;20026;-70
2022/01/05 11:46:23;;;;;;;13.38;5.07;;;1.70;85.60;;;;;;5038678;28;20032;-69
2022/01/05 11:49:10;;;;;;;20.35;9.60;;;1.60;87.40;;;;;;5036756;28;20025;-70
2022/01/05 11:51:42;;;;;;;21.17;8.05;;;1.30;88.00;;;;;;5038488;28;20033;-69
2022/01/05 11:54:30;;;;;;;14.85;4.57;;;1.40;88.10;;;;;;5038285;28;20025;-69
2022/01/05 11:57:16;;;;;;;19.35;4.40;;;1.30;86.30;;;;;;5038364;28;20029;-69
2022/01/05 11:59:42;;;;;;;15.75;5.97;;;1.20;88.40;;;;;;5022321;28;20370;-70
2022/01/05 12:02:17;;;;;;;10.15;3.67;;;0.90;88.70;;;;;;5019071;28;20061;-70
2022/01/05 12:04:56;;;;;;;11.73;3.30;;;1.10;89.80;;;;;;5037890;28;20036;-70
2022/01/05 12:07:45;;;;;;;14.45;3.10;;;1.80;86.10;;;;;;5037323;28;20017;-69
2022/01/05 12:10:22;;;;;;;10.02;3.00;;;2.30;84.80;;;;;;5038116;28;20314;-70
2022/01/05 12:13:02;;;;;;;11.48;3.50;;;2.30;83.90;;;;;;5037861;28;20036;-70
2022/01/05 12:15:55;;;;;;;9.05;3.17;;;2.10;85.00;;;;;;5038094;28;20113;-69
2022/01/05 12:18:30;;;;;;;13.20;3.55;;;2.40;84.60;;;;;;5035224;28;20314;-69
2022/01/05 12:20:57;;;;;;;11.25;3.00;;;2.40;84.10;;;;;;5037557;28;20045;-70
2022/01/05 12:23:25;;;;;;;11.07;4.30;;;2.20;83.30;;;;;;5020146;28;20124;-70
2022/01/05 12:26:07;;;;;;;13.65;4.63;;;1.90;84.80;;;;;;5037873;28;20018;-70
2022/01/05 12:28:36;;;;;;;12.65;4.20;;;2.00;85.40;;;;;;5037000;28;20075;-70
2022/01/05 12:31:09;;;;;;;12.75;4.22;;;2.00;85.40;;;;;;5035957;28;20022;-70
2022/01/05 12:33:51;;;;;;;9.57;3.67;;;1.70;85.90;;;;;;5035400;28;20017;-70
2022/01/05 12:36:34;;;;;;;9.63;3.10;;;1.60;86.90;;;;;;5037464;28;20036;-70
2022/01/05 12:39:07;;;;;;;12.73;4.15;;;1.60;86.60;;;;;;5036530;28;20040;-70
2022/01/05 12:41:44;;;;;;;8.70;2.88;;;1.90;87.40;;;;;;5037312;28;20055;-70
2022/01/05 12:44:13;;;;;;;9.52;3.10;;;1.60;87.40;;;;;;5037770;28;20025;-70
2022/01/05 12:46:42;;;;;;;10.75;3.10;;;1.50;87.60;;;;;;5037277;28;20060;-70
2022/01/05 12:49:14;;;;;;;12.70;3.38;;;1.80;87.30;;;;;;5036065;28;20037;-70
2022/01/05 12:51:53;;;;;;;10.20;2.63;;;2.50;85.90;;;;;;5037157;28;20041;-70
2022/01/05 12:54:23;;;;;;;9.27;3.17;;;2.60;84.20;;;;;;5036399;28;20313;-70
2022/01/05 12:56:51;;;;;;;12.55;3.42;;;2.40;83.60;;;;;;5037043;28;20025;-71
2022/01/05 12:59:21;;;;;;;11.85;3.80;;;2.20;82.80;;;;;;5036644;28;20318;-70
2022/01/05 13:01:49;;;;;;;13.27;3.30;;;2.50;84.50;;;;;;5035886;28;20042;-69